Broughton Island, Canada
Current Conditions -  °F | °C
As of 5:00 AM on Friday 24 Oct 2014 (Local Time) from CYVM Reporting Station
Overcast Overcast  
Wind Chill:   Ceiling: 6000
Heat Index: 19°   Visibility: 9mi
Dew Point: 10°   Wind: 18mph
Humidity: 68%   Direction: 320°NW
Pressure: 29.62"   Gusts: 24mph
Location:  67.53°N, 63.77°W
Report Text: CYVM 240800Z AUTO 32016G21KT 9SM BKN060 OVC075 M07/M12 A2962 RMK SLP032
Loading
Personal Weather Stations






























Interactive Weather Map
Tropical Storm Tracking
New forecast layout! Learn more

10-Day Weather Forecast

Advertisements
Track Severe Weather on mobile